Time;durP1;ratioP1;P1;durP2;ratioP2;P2;SDS_P1;SDS_P2;PMS_P1;PMS_P2;Temp;Humidity;BMP_temperature;BMP_pressure;BME280_temperature;BME280_humidity;BME280_pressure;Samples;Min_cycle;Max_cycle;Signal;HPM_P1;HPM_P2
2022/04/28 00:02:14;;;;;;;1.88;1.15;;;;;;;4.82;100.00;102212.34;5045134;28;20061;-79
2022/04/28 00:04:48;;;;;;;2.03;1.25;;;;;;;4.80;100.00;102209.03;5050479;28;20049;-79
2022/04/28 00:07:21;;;;;;;1.80;1.15;;;;;;;4.64;100.00;102197.56;5053298;28;20052;-79
2022/04/28 00:09:54;;;;;;;2.28;1.20;;;;;;;4.70;100.00;102195.94;5050637;28;20056;-78
2022/04/28 00:12:22;;;;;;;2.65;1.40;;;;;;;4.71;100.00;102205.66;5047529;28;20045;-78
2022/04/28 00:14:52;;;;;;;2.63;1.17;;;;;;;4.60;100.00;102201.72;5045883;28;20036;-78
2022/04/28 00:17:20;;;;;;;2.78;1.42;;;;;;;4.68;100.00;102208.78;5048608;28;20053;-78
2022/04/28 00:19:53;;;;;;;1.77;1.20;;;;;;;4.66;100.00;102216.25;5049503;28;20045;-78
2022/04/28 00:22:27;;;;;;;2.20;1.23;;;;;;;4.62;100.00;102209.59;5045823;28;20061;-78
2022/04/28 00:24:55;;;;;;;1.83;1.20;;;;;;;4.57;100.00;102212.88;5044479;28;20053;-79
2022/04/28 00:27:29;;;;;;;1.67;1.20;;;;;;;4.42;100.00;102207.66;5048807;28;20063;-79
2022/04/28 00:30:04;;;;;;;2.40;1.33;;;;;;;4.52;100.00;102216.19;5049288;28;20053;-78
2022/04/28 00:32:38;;;;;;;3.85;1.52;;;;;;;4.48;100.00;102206.84;5045733;28;20053;-79
2022/04/28 00:35:11;;;;;;;8.95;2.05;;;;;;;4.46;100.00;102202.69;5056505;28;20071;-78
2022/04/28 00:37:44;;;;;;;4.68;1.70;;;;;;;4.41;100.00;102214.06;5053885;28;20044;-79
2022/04/28 00:40:17;;;;;;;4.28;1.45;;;;;;;4.32;100.00;102210.69;5048489;28;20049;-78
2022/04/28 00:42:50;;;;;;;1.63;1.30;;;;;;;4.31;100.00;102205.50;5053866;28;20045;-79
2022/04/28 00:45:25;;;;;;;1.40;1.30;;;;;;;4.29;100.00;102208.41;5041550;28;20053;-78
2022/04/28 00:50:49;;;;;;;2.35;1.35;;;;;;;4.20;100.00;102215.84;5047271;28;20052;-79
2022/04/28 00:53:17;;;;;;;2.70;1.60;;;;;;;4.20;100.00;102210.44;5045698;28;20064;-79
2022/04/28 00:55:51;;;;;;;2.42;1.55;;;;;;;4.25;100.00;102208.00;5044225;28;20049;-79
2022/04/28 00:58:24;;;;;;;3.47;1.80;;;;;;;4.21;100.00;102219.34;5045707;28;20042;-79
2022/04/28 01:00:58;;;;;;;3.70;1.65;;;;;;;4.19;100.00;102218.75;5058279;28;20041;-79
2022/04/28 01:03:32;;;;;;;2.10;1.67;;;;;;;4.17;100.00;102220.78;5049490;28;20087;-78
2022/04/28 01:06:05;;;;;;;1.70;1.42;;;;;;;4.19;100.00;102224.13;5042771;28;20057;-78
2022/04/28 01:08:33;;;;;;;1.80;1.63;;;;;;;4.13;100.00;102219.53;5045526;28;20049;-79
2022/04/28 01:11:07;;;;;;;1.65;1.50;;;;;;;4.06;100.00;102219.47;5046177;28;20049;-79
2022/04/28 01:13:56;;;;;;;2.17;1.70;;;;;;;4.05;100.00;102224.03;5060044;28;20045;-78
2022/04/28 01:16:30;;;;;;;2.20;1.58;;;;;;;4.08;100.00;102229.03;5039729;28;20625;-78
2022/04/28 01:19:03;;;;;;;1.67;1.50;;;;;;;4.06;100.00;102224.84;5062979;28;20045;-78
2022/04/28 01:21:39;;;;;;;2.13;1.77;;;;;;;4.04;100.00;102224.25;5051954;28;20056;-79
2022/04/28 01:24:17;;;;;;;2.15;1.80;;;;;;;4.00;100.00;102229.19;5041006;28;20057;-78
2022/04/28 01:26:54;;;;;;;2.13;1.92;;;;;;;3.98;100.00;102225.03;5039018;28;20057;-78
2022/04/28 01:29:27;;;;;;;1.70;1.60;;;;;;;3.91;100.00;102225.00;5043161;28;20049;-78
2022/04/28 01:32:02;;;;;;;2.38;2.03;;;;;;;3.94;100.00;102221.91;5045869;28;20041;-78
2022/04/28 01:34:35;;;;;;;3.03;2.00;;;;;;;3.94;100.00;102223.78;5049117;28;20053;-78
2022/04/28 01:37:10;;;;;;;2.30;1.90;;;;;;;3.94;100.00;102223.78;5044730;28;20045;-79
2022/04/28 01:39:44;;;;;;;2.17;1.98;;;;;;;3.87;100.00;102223.72;5046531;28;20052;-79
2022/04/28 01:42:17;;;;;;;2.95;2.22;;;;;;;3.83;100.00;102211.69;5039779;28;20049;-79
2022/04/28 01:44:51;;;;;;;2.30;2.10;;;;;;;3.80;100.00;102212.06;5040781;28;20493;-79
2022/04/28 01:47:24;;;;;;;2.10;1.90;;;;;;;3.74;100.00;102219.06;5068436;28;20565;-79
2022/04/28 01:50:23;;;;;;;2.85;2.45;;;;;;;3.83;100.00;102214.38;5048379;28;20161;-78
2022/04/28 01:56:05;;;;;;;2.50;2.30;;;;;;;3.73;100.00;102217.41;5050432;28;20049;-78
2022/04/28 01:59:00;;;;;;;2.47;2.28;;;;;;;3.77;100.00;102224.06;5034546;28;20053;-79
2022/04/28 02:01:56;;;;;;;2.87;2.67;;;;;;;3.69;100.00;102219.66;5051211;28;20045;-79
2022/04/28 02:04:29;;;;;;;2.55;2.28;;;;;;;3.64;100.00;102229.34;5039933;28;20057;-79
2022/04/28 02:07:03;;;;;;;3.05;2.75;;;;;;;3.56;100.00;102227.63;5049706;28;20048;-79
2022/04/28 02:09:38;;;;;;;3.33;2.95;;;;;;;3.57;100.00;102227.44;5048755;28;20057;-77
2022/04/28 02:12:13;;;;;;;3.20;2.92;;;;;;;3.58;100.00;102226.41;5036671;28;20057;-78
2022/04/28 02:15:18;;;;;;;3.60;3.17;;;;;;;3.55;100.00;102224.13;5038185;28;20053;-79
2022/04/28 02:18:09;;;;;;;3.75;3.22;;;;;;;3.58;100.00;102220.19;5051427;28;20060;-79
2022/04/28 02:20:38;;;;;;;4.55;2.97;;;;;;;3.54;100.00;102218.94;5050606;28;20048;-78
2022/04/28 02:23:12;;;;;;;2.80;2.60;;;;;;;3.53;100.00;102215.38;5048288;28;20045;-79
2022/04/28 02:25:41;;;;;;;3.67;3.38;;;;;;;3.55;100.00;102226.81;5043613;28;20045;-79
2022/04/28 02:28:14;;;;;;;3.30;3.00;;;;;;;3.49;100.00;102221.38;5042641;28;20054;-79
2022/04/28 02:30:49;;;;;;;3.33;3.03;;;;;;;3.45;100.00;102220.09;5044195;28;20053;-79
2022/04/28 02:33:19;;;;;;;3.90;3.47;;;;;;;3.45;100.00;102215.53;5052462;28;20053;-79
2022/04/28 02:36:01;;;;;;;3.90;3.60;;;;;;;3.48;100.00;102209.78;5051094;28;20049;-80
2022/04/28 02:38:37;;;;;;;3.72;3.42;;;;;;;3.48;100.00;102228.63;5038199;28;20041;-79
2022/04/28 02:41:16;;;;;;;3.80;3.50;;;;;;;3.46;100.00;102222.56;5047628;28;20048;-79
2022/04/28 02:43:44;;;;;;;4.35;4.05;;;;;;;3.42;100.00;102224.00;5046601;28;20064;-79
2022/04/28 02:46:15;;;;;;;4.72;4.32;;;;;;;3.31;100.00;102221.81;5034616;28;20045;-79
2022/04/28 02:49:09;;;;;;;5.47;4.40;;;;;;;3.36;100.00;102225.59;5045898;28;20071;-79
2022/04/28 02:51:43;;;;;;;4.80;4.43;;;;;;;3.32;100.00;102218.94;5048974;28;20397;-79
2022/04/28 02:54:17;;;;;;;5.10;4.70;;;;;;;3.32;100.00;102218.94;5050175;28;20522;-78
2022/04/28 02:56:53;;;;;;;4.82;4.43;;;;;;;3.24;100.00;102213.69;5042442;28;20060;-79
2022/04/28 02:59:26;;;;;;;4.97;4.57;;;;;;;3.20;100.00;102213.25;5042728;28;20064;-78
2022/04/28 03:01:59;;;;;;;5.68;5.10;;;;;;;3.18;100.00;102218.00;5036484;28;20049;-79
2022/04/28 03:04:27;;;;;;;5.40;5.00;;;;;;;3.16;100.00;102216.50;5047550;28;20367;-79
2022/04/28 03:12:44;;;;;;;7.50;6.90;;;;;;;3.03;100.00;102228.81;5048465;28;20041;-80
2022/04/28 03:15:25;;;;;;;7.63;7.03;;;;;;;2.99;100.00;102224.81;5045424;28;20053;-79
2022/04/28 03:17:58;;;;;;;8.10;7.40;;;;;;;3.05;100.00;102221.41;5057140;28;20071;-79
2022/04/28 03:20:27;;;;;;;9.02;8.32;;;;;;;2.99;100.00;102221.31;5052655;28;20068;-79
2022/04/28 03:23:05;;;;;;;9.32;8.57;;;;;;;2.92;100.00;102218.56;5043968;28;20052;-78
2022/04/28 03:25:39;;;;;;;10.45;9.43;;;;;;;2.89;100.00;102221.63;5051770;28;20049;-78
2022/04/28 03:28:14;;;;;;;12.00;10.55;;;;;;;2.87;100.00;102210.22;5049693;28;20056;-78
2022/04/28 03:30:48;;;;;;;11.05;10.00;;;;;;;2.85;100.00;102212.28;5047385;28;20040;-78
2022/04/28 03:33:25;;;;;;;11.13;10.32;;;;;;;2.76;100.00;102219.63;5051163;28;20056;-80
2022/04/28 03:35:58;;;;;;;10.45;9.65;;;;;;;2.74;100.00;102215.47;5074465;28;20062;-78
2022/04/28 03:38:32;;;;;;;12.20;11.38;;;;;;;2.70;100.00;102221.19;5050257;28;20048;-78
2022/04/28 03:41:05;;;;;;;11.93;11.13;;;;;;;2.65;100.00;102226.34;5040923;28;20405;-78
2022/04/28 03:43:40;;;;;;;12.45;11.65;;;;;;;2.65;100.00;102215.59;5040207;28;20061;-78
2022/04/28 03:46:15;;;;;;;15.77;14.77;;;;;;;2.68;100.00;102227.78;5050669;28;20053;-79
2022/04/28 03:48:49;;;;;;;14.93;13.98;;;;;;;2.68;100.00;102222.41;5057450;28;20044;-79
2022/04/28 03:51:22;;;;;;;18.75;17.58;;;;;;;2.76;100.00;102224.16;5054834;28;20053;-77
2022/04/28 03:53:59;;;;;;;17.65;16.52;;;;;;;2.68;100.00;102225.09;5049267;28;20040;-78
2022/04/28 03:56:35;;;;;;;18.65;17.38;;;;;;;2.69;100.00;102227.63;5044961;28;20049;-78
2022/04/28 03:59:12;;;;;;;20.60;19.40;;;;;;;2.64;100.00;102229.22;5042470;28;20065;-78
2022/04/28 04:01:58;;;;;;;20.98;19.67;;;;;;;2.60;100.00;102230.63;5044250;28;20049;-78
2022/04/28 04:04:31;;;;;;;20.92;19.58;;;;;;;2.58;100.00;102233.47;5049181;28;20049;-79
2022/04/28 04:07:08;;;;;;;19.92;18.73;;;;;;;2.65;100.00;102234.41;5051184;28;20040;-78
2022/04/28 04:09:42;;;;;;;23.67;22.27;;;;;;;2.64;100.00;102242.66;5053994;28;20049;-79
2022/04/28 04:12:30;;;;;;;22.52;21.20;;;;;;;2.63;100.00;102241.81;5047634;28;20049;-78
2022/04/28 04:15:25;;;;;;;23.23;21.83;;;;;;;2.64;100.00;102248.03;5045446;28;20049;-79
2022/04/28 04:18:04;;;;;;;24.48;23.05;;;;;;;2.62;100.00;102242.00;5041744;28;20059;-79
2022/04/28 04:20:48;;;;;;;28.85;27.13;;;;;;;2.68;100.00;102252.84;5031722;28;20045;-78
2022/04/28 04:23:21;;;;;;;29.67;27.98;;;;;;;2.73;100.00;102249.56;5040892;28;20049;-78
2022/04/28 04:25:55;;;;;;;30.45;28.73;;;;;;;2.73;100.00;102252.25;5046015;28;20135;-78
2022/04/28 04:28:29;;;;;;;34.58;32.65;;;;;;;2.70;100.00;102249.94;5042370;28;20064;-78
2022/04/28 04:34:27;;;;;;;38.28;36.17;;;;;;;2.84;100.00;102251.75;5042457;28;20047;-78
2022/04/28 04:37:00;;;;;;;41.85;39.53;;;;;;;2.93;100.00;102254.34;5040743;28;20049;-79
2022/04/28 04:39:34;;;;;;;43.83;41.35;;;;;;;2.95;100.00;102263.06;5043106;28;20045;-79
2022/04/28 04:42:08;;;;;;;46.25;43.70;;;;;;;2.95;100.00;102252.31;5048995;28;20064;-79
2022/04/28 04:44:41;;;;;;;48.72;46.10;;;;;;;3.03;100.00;102263.78;5047503;28;20053;-78
2022/04/28 04:47:15;;;;;;;50.92;48.17;;;;;;;3.05;100.00;102258.19;5044173;28;20147;-79
2022/04/28 04:49:59;;;;;;;49.75;47.08;;;;;;;3.10;100.00;102263.84;5050208;28;20048;-79
2022/04/28 04:52:38;;;;;;;46.33;43.78;;;;;;;3.06;100.00;102251.81;5049085;28;20049;-79
2022/04/28 04:55:17;;;;;;;48.45;45.83;;;;;;;3.18;100.00;102273.66;5048961;28;20502;-80
2022/04/28 04:57:59;;;;;;;49.97;47.25;;;;;;;3.25;100.00;102271.88;5038124;28;20049;-78
2022/04/28 05:00:33;;;;;;;52.38;49.53;;;;;;;3.39;100.00;102270.97;5047253;28;20516;-78
2022/04/28 05:03:21;;;;;;;63.95;60.47;;;;;;;4.00;100.00;102277.66;5041736;28;20076;-78
2022/04/28 05:05:57;;;;;;;62.03;58.35;;;;;;;5.20;100.00;102266.59;5057099;28;20075;-79
2022/04/28 05:08:33;;;;;;;49.33;46.60;;;;;;;7.00;100.00;102263.81;5044063;28;20045;-79
2022/04/28 05:11:11;;;;;;;29.63;27.95;;;;;;;7.93;100.00;102265.84;5041508;28;20698;-79
2022/04/28 05:13:56;;;;;;;12.15;11.35;;;;;;;8.58;100.00;102263.75;5041618;28;20041;-80
2022/04/28 05:16:25;;;;;;;5.38;4.97;;;;;;;8.89;100.00;102275.44;5044543;28;20052;-79
2022/04/28 05:19:12;;;;;;;3.65;3.35;;;;;;;9.48;100.00;102268.31;5046958;28;20048;-79
2022/04/28 05:21:45;;;;;;;2.85;2.20;;;;;;;9.55;100.00;102261.97;5044975;28;20064;-79
2022/04/28 05:24:37;;;;;;;2.30;1.45;;;;;;;8.80;100.00;102266.81;5051305;28;20052;-78
2022/04/28 05:27:29;;;;;;;3.38;1.70;;;;;;;8.06;100.00;102273.00;5051304;28;20052;-79
2022/04/28 05:30:21;;;;;;;2.78;1.30;;;;;;;7.53;100.00;102274.31;5053163;28;20088;-79
2022/04/28 05:33:14;;;;;;;2.20;1.33;;;;;;;7.20;100.00;102285.38;5044790;28;20061;-80
2022/04/28 05:36:09;;;;;;;2.45;1.30;;;;;;;6.73;100.00;102277.50;5045672;28;20053;-79
2022/04/28 05:38:43;;;;;;;1.85;1.13;;;;;;;6.52;100.00;102287.56;5042109;28;20405;-79
2022/04/28 05:41:18;;;;;;;2.20;1.35;;;;;;;6.51;100.00;102293.19;5048301;28;20060;-80
2022/04/28 05:46:38;;;;;;;1.95;1.40;;;;;;;6.59;100.00;102301.06;5049179;28;20052;-80
2022/04/28 05:49:11;;;;;;;4.13;1.65;;;;;;;6.70;100.00;102291.44;5050517;28;20048;-80
2022/04/28 05:51:48;;;;;;;1.65;1.30;;;;;;;6.60;100.00;102292.72;5039497;28;20049;-80
2022/04/28 05:54:19;;;;;;;3.35;1.40;;;;;;;6.69;100.00;102287.91;5047808;28;20041;-79
2022/04/28 05:56:52;;;;;;;5.40;1.60;;;;;;;6.61;100.00;102294.38;5042789;28;20048;-80
2022/04/28 05:59:26;;;;;;;2.88;1.45;;;;;;;6.65;100.00;102294.78;5040001;28;20120;-79
2022/04/28 06:02:34;;;;;;;2.15;1.38;;;;;;;6.66;100.00;102290.19;5031396;28;20049;-80
2022/04/28 06:05:10;;;;;;;2.33;1.42;;;;;;;6.78;100.00;102300.16;5028103;28;20045;-79
2022/04/28 06:07:40;;;;;;;2.00;1.55;;;;;;;6.88;100.00;102305.13;5037255;28;21508;-79
2022/04/28 06:10:14;;;;;;;3.97;1.80;;;;;;;6.96;100.00;102296.75;5049060;28;20053;-80
2022/04/28 06:12:53;;;;;;;2.72;1.50;;;;;;;6.89;100.00;102305.94;5043636;28;20496;-80
2022/04/28 06:15:29;;;;;;;4.00;1.50;;;;;;;7.08;100.00;102301.47;5046200;28;20060;-77
2022/04/28 06:18:29;;;;;;;3.55;1.85;;;;;;;7.18;100.00;102309.97;5043503;28;21290;-80
2022/04/28 06:21:04;;;;;;;1.65;1.40;;;;;;;7.32;100.00;102306.13;5041153;28;20049;-83
2022/04/28 06:23:42;;;;;;;3.08;1.73;;;;;;;7.37;100.00;102307.34;5041470;28;20048;-78
2022/04/28 06:26:10;;;;;;;2.47;1.50;;;;;;;7.54;100.00;102307.66;5043173;28;20513;-78
2022/04/28 06:28:43;;;;;;;1.88;1.58;;;;;;;7.45;100.00;102301.66;5039570;28;20046;-77
2022/04/28 06:31:17;;;;;;;2.47;1.45;;;;;;;7.57;100.00;102304.53;5057794;28;20076;-78
2022/04/28 06:33:51;;;;;;;4.65;1.58;;;;;;;7.59;100.00;102302.41;5051596;28;20053;-79
2022/04/28 06:36:29;;;;;;;3.03;1.70;;;;;;;7.76;100.00;102314.38;5031958;28;20053;-77
2022/04/28 06:39:04;;;;;;;1.92;1.60;;;;;;;7.86;100.00;102318.44;5046003;28;20045;-77
2022/04/28 06:41:37;;;;;;;1.55;1.45;;;;;;;7.98;100.00;102325.66;5038302;28;20056;-78
2022/04/28 06:44:20;;;;;;;2.25;1.50;;;;;;;8.00;100.00;102320.84;5040352;28;20683;-78
2022/04/28 06:47:16;;;;;;;1.83;1.40;;;;;;;8.09;100.00;102320.53;5054945;28;20057;-79
2022/04/28 06:50:12;;;;;;;2.53;1.40;;;;;;;8.10;100.00;102317.63;5030646;28;20057;-79
2022/04/28 06:53:04;;;;;;;1.58;1.25;;;;;;;8.11;100.00;102313.03;5036061;28;20528;-79
2022/04/28 06:55:40;;;;;;;2.15;1.55;;;;;;;8.34;100.00;102312.38;5025671;28;20041;-79
2022/04/28 06:58:15;;;;;;;2.20;1.52;;;;;;;8.50;100.00;102313.72;5030222;28;20056;-79
2022/04/28 07:00:50;;;;;;;1.60;1.50;;;;;;;8.49;100.00;102317.47;5024192;28;20056;-80
2022/04/28 07:03:23;;;;;;;1.77;1.20;;;;;;;8.47;100.00;102320.41;5026626;28;21591;-79
2022/04/28 07:05:57;;;;;;;2.03;1.30;;;;;;;8.54;100.00;102316.81;5024730;28;20045;-79
2022/04/28 07:08:31;;;;;;;1.60;1.08;;;;;;;8.35;100.00;102316.75;5025903;28;20417;-80
2022/04/28 07:11:06;;;;;;;2.80;1.42;;;;;;;8.29;100.00;102317.66;5027884;28;20049;-79
2022/04/28 07:13:36;;;;;;;2.22;1.30;;;;;;;8.44;100.00;102318.13;5023956;28;20525;-78
2022/04/28 07:16:32;;;;;;;2.97;1.40;;;;;;;8.36;100.00;102312.16;5030244;28;20057;-78
2022/04/28 07:19:13;;;;;;;2.20;1.27;;;;;;;8.56;100.00;102315.53;5023284;28;20068;-79
2022/04/28 07:21:49;;;;;;;2.55;1.40;;;;;;;8.50;100.00;102325.38;5023367;28;20068;-78
2022/04/28 07:24:23;;;;;;;1.42;1.08;;;;;;;8.54;100.00;102322.25;5027982;28;20520;-79
2022/04/28 07:26:58;;;;;;;2.30;1.55;;;;;;;8.78;100.00;102321.34;5039082;28;20045;-80
2022/04/28 07:29:31;;;;;;;1.40;1.08;;;;;;;8.93;100.00;102329.06;5017570;28;20503;-77
2022/04/28 07:32:16;;;;;;;2.30;1.20;;;;;;;8.74;100.00;102325.56;5020006;28;20529;-78
2022/04/28 07:35:08;;;;;;;2.58;1.33;;;;;;;9.08;100.00;102323.22;5038479;28;20067;-78
2022/04/28 07:38:00;;;;;;;2.33;1.17;;;;;;;8.95;100.00;102317.97;5030547;28;20064;-78
2022/04/28 07:40:36;;;;;;;3.95;1.50;;;;;;;9.08;100.00;102325.13;5025736;28;20068;-79
2022/04/28 07:43:12;;;;;;;2.67;1.35;;;;;;;9.13;100.00;102334.25;5019388;28;20060;-79
2022/04/28 07:45:46;;;;;;;5.05;1.42;;;;;;;9.34;100.00;102342.97;5022028;28;20045;-79
2022/04/28 07:48:19;;;;;;;2.70;1.20;;;;;;;9.32;100.00;102343.19;5014496;28;20060;-80
2022/04/28 07:50:53;;;;;;;2.53;1.17;;;;;;;9.32;100.00;102345.06;5014830;28;20052;-79
2022/04/28 07:53:31;;;;;;;1.50;1.10;;;;;;;9.39;100.00;102342.25;5029102;28;21465;-77
2022/04/28 07:56:13;;;;;;;1.35;1.02;;;;;;;9.52;100.00;102347.50;5018837;28;20060;-79
2022/04/28 07:58:46;;;;;;;2.90;1.20;;;;;;;9.57;100.00;102342.22;5017192;28;20053;-78
2022/04/28 08:01:24;;;;;;;1.73;0.93;;;;;;;9.66;100.00;102343.50;5013693;28;20056;-78
2022/04/28 08:03:53;;;;;;;3.38;1.33;;;;;;;9.61;100.00;102339.84;5014415;28;20053;-79
2022/04/28 08:06:23;;;;;;;2.40;1.20;;;;;;;9.65;100.00;102346.47;5017716;28;20052;-78
2022/04/28 08:08:51;;;;;;;2.17;1.00;;;;;;;9.51;100.00;102348.56;5027966;28;20057;-79
2022/04/28 08:11:25;;;;;;;2.15;1.08;;;;;;;9.62;100.00;102344.22;5018200;28;20056;-80
2022/04/28 08:13:55;;;;;;;2.78;1.20;;;;;;;9.56;100.00;102343.25;5025574;28;20509;-80
2022/04/28 08:16:29;;;;;;;3.05;1.25;;;;;;;9.59;100.00;102339.25;5037910;28;20060;-79
2022/04/28 08:19:02;;;;;;;3.10;1.35;;;;;;;9.82;100.00;102342.03;5012267;28;20048;-79
2022/04/28 08:21:45;;;;;;;2.03;1.30;;;;;;;9.85;100.00;102340.72;5017642;28;20053;-79
2022/04/28 08:24:20;;;;;;;3.38;1.50;;;;;;;9.94;100.00;102336.59;5021341;28;20701;-79
2022/04/28 08:26:54;;;;;;;3.92;1.40;;;;;;;10.03;100.00;102346.06;5014028;28;20045;-79
2022/04/28 08:29:29;;;;;;;3.95;1.42;;;;;;;9.91;100.00;102347.13;5014646;28;20064;-79
2022/04/28 08:32:05;;;;;;;;;;;;;;;10.24;100.00;102351.19;5038323;28;20052;-79
2022/04/28 08:34:38;;;;;;;;;;;;;;;10.19;100.00;102341.81;5020360;28;19928;-78
2022/04/28 08:37:11;;;;;;;;;;;;;;;10.20;100.00;102342.66;5020452;28;19935;-78
2022/04/28 08:39:44;;;;;;;;;;;;;;;10.34;100.00;102351.41;5021652;28;19928;-78
2022/04/28 08:42:13;;;;;;;;;;;;;;;10.30;100.00;102352.94;5035977;28;20011;-80
2022/04/28 08:45:09;;;;;;;;;;;;;;;10.25;100.00;102345.50;5021416;28;19936;-80
2022/04/28 08:47:57;;;;;;;;;;;;;;;10.26;100.00;102352.59;5021677;28;19929;-80
2022/04/28 08:50:53;;;;;;;;;;;;;;;10.27;100.00;102354.22;5016415;28;19936;-80
2022/04/28 08:53:27;;;;;;;;;;;;;;;10.43;100.00;102346.47;5028054;28;19935;-81
2022/04/28 08:56:00;;;;;;;;;;;;;;;10.44;100.00;102342.66;5016776;28;19935;-80
2022/04/28 08:58:29;;;;;;;;;;;;;;;10.47;100.00;102344.94;5015039;28;19929;-80
2022/04/28 09:01:07;;;;;;;;;;;;;;;10.49;100.00;102346.31;5016271;28;19928;-80
2022/04/28 09:04:10;;;;;;;;;;;;;;;10.87;100.00;102344.97;5019189;28;19929;-79
2022/04/28 09:07:00;;;;;;;;;;;;;;;11.04;100.00;102353.19;5021920;28;20534;-79
2022/04/28 09:09:42;;;;;;;;;;;;;;;10.95;100.00;102351.09;5021658;28;19929;-79
2022/04/28 09:12:29;;;;;;;;;;;;;;;10.87;100.00;102350.41;5021266;28;19928;-79
2022/04/28 09:15:18;;;;;;;;;;;;;;;10.87;100.00;102344.97;5019506;28;19928;-78
2022/04/28 09:17:57;;;;;;;;;;;;;;;10.79;100.00;102350.78;5017682;28;19936;-79
2022/04/28 09:20:30;;;;;;;;;;;;;;;11.04;100.00;102352.38;5019915;28;19929;-81
2022/04/28 09:23:04;;;;;;;;;;;;;;;11.02;100.00;102349.06;5018540;28;19924;-78
2022/04/28 09:25:43;;;;;;;;;;;;;;;11.16;100.00;102350.44;5017166;28;19940;-79
2022/04/28 09:28:12;;;;;;;;;;;;;;;11.07;100.00;102341.00;5016940;28;19936;-79
2022/04/28 09:30:45;;;;;;;;;;;;;;;11.05;100.00;102341.25;5021683;28;19936;-78
2022/04/28 09:33:39;;;;;;;;;;;;;;;11.38;100.00;102341.59;5023086;28;19929;-79
2022/04/28 09:36:19;;;;;;;;;;;;;;;11.18;100.00;102345.56;5037705;28;19932;-80
2022/04/28 09:38:56;;;;;;;;;;;;;;;11.45;100.00;102328.63;5023420;28;19928;-79
2022/04/28 09:44:27;;;;;;;;;;;;;;;11.83;100.00;102326.25;5030886;28;20467;-80
2022/04/28 09:47:10;;;;;;;;;;;;;;;11.75;100.00;102327.50;5023812;28;19929;-80
2022/04/28 09:49:46;;;;;;;;;;;;;;;11.86;100.00;102323.03;5019985;28;19929;-80
2022/04/28 09:52:37;;;;;;;;;;;;;;;12.04;100.00;102327.44;5012579;28;19928;-79
2022/04/28 09:55:30;;;;;;;;;;;;;;;11.94;100.00;102327.25;5020192;28;20554;-79
2022/04/28 09:58:18;;;;;;;;;;;;;;;12.43;100.00;102324.75;5027703;28;19928;-79
2022/04/28 10:00:52;;;;;;;;;;;;;;;12.15;95.17;102323.81;5017370;28;20320;-78
2022/04/28 10:03:23;;;;;;;;;;;;;;;12.28;100.00;102330.81;5016591;28;19936;-80
2022/04/28 10:05:58;;;;;;;;;;;;;;;12.11;93.83;102325.38;5014972;28;21282;-78
2022/04/28 10:08:50;;;;;;;;;;;;;;;11.73;93.96;102332.38;5021955;28;19929;-78
2022/04/28 10:11:24;;;;;;;;;;;;;;;11.89;92.42;102320.66;5013162;28;19943;-78
2022/04/28 10:13:55;;;;;;;;;;;;;;;12.20;100.00;102323.88;5018866;28;19924;-80
2022/04/28 10:16:30;;;;;;;;;;;;;;;12.10;100.00;102323.72;5055620;28;20567;-79
2022/04/28 10:19:05;;;;;;;;;;;;;;;12.23;93.38;102328.81;5054552;28;19936;-79
2022/04/28 10:21:42;;;;;;;;;;;;;;;12.32;90.94;102323.78;5020814;28;19928;-79
2022/04/28 10:32:57;;;;;;;;;;;;;;;12.36;86.73;102321.34;5056603;28;19928;-81
2022/04/28 10:35:35;;;;;;;;;;;;;;;12.53;90.67;102316.69;5021147;28;19929;-80
2022/04/28 10:38:11;;;;;;;;;;;;;;;12.46;90.29;102317.97;5027024;28;19929;-80
2022/04/28 10:40:45;;;;;;;;;;;;;;;12.34;90.64;102316.16;5057540;28;19929;-78
2022/04/28 10:43:23;;;;;;;;;;;;;;;12.35;95.28;102319.72;5019253;28;19936;-79
2022/04/28 10:45:57;;;;;;;;;;;;;;;12.42;93.26;102331.28;5025321;28;20364;-79
2022/04/28 10:48:30;;;;;;;;;;;;;;;12.48;97.59;102326.72;5021290;28;19928;-79
2022/04/28 10:51:10;;;;;;;;;;;;;;;12.47;95.53;102316.88;5021682;28;19940;-79
2022/04/28 10:54:00;;;;;;;;;;;;;;;12.76;94.17;102320.25;5025066;28;19936;-81
2022/04/28 10:56:52;;;;;;;;;;;;;;;12.85;92.09;102309.72;5031159;28;19928;-78
2022/04/28 10:59:34;;;;;;;;;;;;;;;13.04;93.43;102319.22;5024007;28;19939;-78
2022/04/28 11:02:20;;;;;;;;;;;;;;;13.09;92.54;102319.28;5021879;28;19929;-79
2022/04/28 11:04:55;;;;;;;;;;;;;;;12.86;94.22;102308.63;5022477;28;19928;-78
2022/04/28 11:07:24;;;;;;;;;;;;;;;13.22;95.41;102309.84;5029369;28;19928;-77
2022/04/28 11:10:00;;;;;;;;;;;;;;;13.01;93.83;102307.97;5030789;28;19929;-79
2022/04/28 11:12:34;;;;;;;;;;;;;;;13.48;95.04;102299.19;5022871;28;19929;-77
2022/04/28 11:15:04;;;;;;;;;;;;;;;13.40;89.50;102305.13;5026038;28;19925;-77
2022/04/28 11:17:39;;;;;;;;;;;;;;;13.26;90.64;102301.97;5016380;28;20015;-77
2022/04/28 11:20:14;;;;;;;;;;;;;;;13.30;92.59;102300.34;5025607;28;19928;-79
2022/04/28 11:23:04;;;;;;;;;;;;;;;13.31;86.94;102303.91;5022068;28;19932;-76
2022/04/28 11:25:35;;;;;;;;;;;;;;;13.32;82.52;102297.34;5019310;28;19928;-78
2022/04/28 11:28:10;;;;;;;;;;;;;;;13.72;89.36;102294.19;5020418;28;19959;-76
2022/04/28 11:30:42;;;;;;;;;;;;;;;13.29;83.05;102290.50;5023417;28;19935;-78
2022/04/28 11:33:13;;;;;;;;;;;;;;;13.72;88.13;102293.38;5022336;28;19928;-78
2022/04/28 11:35:46;;;;;;;;;;;;;;;14.09;86.44;102289.78;5022021;28;19929;-78
2022/04/28 11:38:25;;;;;;;;;;;;;;;13.92;83.16;102293.50;5025597;28;19928;-78
2022/04/28 11:41:03;;;;;;;;;;;;;;;13.78;74.24;102295.03;5021520;28;19929;-78
2022/04/28 11:43:36;;;;;;;;;;;;;;;13.92;77.55;102285.31;5028438;28;19928;-77
2022/04/28 11:46:04;;;;;;;;;;;;;;;13.91;69.10;102285.56;5019025;28;19928;-76
2022/04/28 11:48:38;;;;;;;;;;;;;;;14.04;75.79;102284.28;5025121;28;19939;-78
2022/04/28 11:51:11;;;;;;;;;;;;;;;14.21;66.35;102290.41;5029292;28;19936;-78
2022/04/28 11:53:45;;;;;;;;;;;;;;;14.13;71.51;102290.91;5023727;28;20361;-77
2022/04/28 11:56:22;;;;;;;;;;;;;;;14.60;88.66;102295.53;5022996;28;19928;-75
2022/04/28 11:58:54;;;;;;;;;;;;;;;14.63;76.75;102292.28;5027436;28;19947;-76
2022/04/28 12:01:32;;;;;;;;;;;;;;;14.74;75.73;102292.34;5026130;28;19929;-77
2022/04/28 12:04:05;;;;;;;;;;;;;;;14.76;64.49;102288.25;5029377;28;19928;-76
2022/04/28 12:06:42;;;;;;;;;;;;;;;14.41;63.06;102284.22;5021277;28;19928;-77
2022/04/28 12:14:54;;;;;;;;;;;;;;;14.69;78.30;102284.09;5015950;28;21627;-79
2022/04/28 12:20:22;;;;;;;;;;;;;;;14.22;70.99;102283.03;5020962;28;19935;-77
2022/04/28 12:22:56;;;;;;;;;;;;;;;14.06;62.17;102279.38;5038858;28;19974;-78
2022/04/28 12:25:33;;;;;;;;;;;;;;;14.17;63.80;102272.03;5023796;28;19929;-78
2022/04/28 12:28:03;;;;;;;;;;;;;;;14.54;68.29;102271.97;5017158;28;19929;-77
2022/04/28 12:30:35;;;;;;;;;;;;;;;14.51;60.64;102277.13;5020931;28;19928;-78
2022/04/28 12:33:10;;;;;;;;;;;;;;;14.81;65.09;102279.19;5018178;28;19925;-78
2022/04/28 12:35:43;;;;;;;;;;;;;;;15.05;60.71;102273.22;5018068;28;19929;-78
2022/04/28 12:38:12;;;;;;;;;;;;;;;14.84;57.90;102264.13;5023566;28;19951;-78
2022/04/28 12:40:45;;;;;;;;;;;;;;;15.23;70.82;102269.13;5023865;28;19929;-78
2022/04/28 12:43:33;;;;;;;;;;;;;;;15.29;57.03;102268.06;5018516;28;19925;-78
2022/04/28 12:46:08;;;;;;;;;;;;;;;15.27;60.94;102271.09;5015163;28;21259;-79
2022/04/28 12:48:42;;;;;;;;;;;;;;;15.23;55.22;102271.88;5017771;28;19959;-79
2022/04/28 12:51:16;;;;;;;;;;;;;;;14.96;60.36;102270.19;5017509;28;19935;-77
2022/04/28 12:53:50;;;;;;;;;;;;;;;15.04;59.75;102271.56;5015789;28;19928;-78
2022/04/28 12:56:28;;;;;;;;;;;;;;;15.25;56.67;102266.97;5015467;28;19929;-78
2022/04/28 12:58:56;;;;;;;;;;;;;;;14.98;57.82;102283.63;5016249;28;19939;-77
2022/04/28 13:01:31;;;;;;;;;;;;;;;15.12;63.84;102273.78;5020664;28;20562;-77
2022/04/28 13:04:01;;;;;;;;;;;;;;;15.29;65.03;102274.38;5033203;28;19936;-76
2022/04/28 13:06:35;;;;;;;;;;;;;;;15.05;60.02;102276.81;5021503;28;20392;-77
2022/04/28 13:09:08;;;;;;;;;;;;;;;15.13;58.19;102278.19;5016983;28;19929;-77